Time;durP1;ratioP1;P1;durP2;ratioP2;P2;SDS_P1;SDS_P2;PMS_P1;PMS_P2;Temp;Humidity;BMP_temperature;BMP_pressure;BME280_temperature;BME280_humidity;BME280_pressure;Samples;Min_cycle;Max_cycle;Signal;HPM_P1;HPM_P2
2020/12/05 00:00:45;;;;;;;1999.90;999.90;;;1.50;99.90;;;;;;5047154;28;20274;-47
2020/12/05 00:03:11;;;;;;;1999.90;999.90;;;1.50;99.90;;;;;;5046894;28;20549;-47
2020/12/05 00:05:37;;;;;;;1999.90;999.90;;;1.60;99.90;;;;;;5030182;28;20221;-49
2020/12/05 00:08:02;;;;;;;1999.90;999.90;;;1.70;99.90;;;;;;5029209;28;20276;-48
2020/12/05 00:10:29;;;;;;;1999.90;999.90;;;1.80;99.90;;;;;;5030306;28;20193;-47
2020/12/05 00:12:55;;;;;;;1999.90;999.90;;;1.80;99.90;;;;;;5029814;28;20640;-48
2020/12/05 00:15:20;;;;;;;1999.90;999.90;;;1.90;99.90;;;;;;5040569;28;20457;-47
2020/12/05 13:31:56;;;;;;;1999.90;999.90;;;4.00;99.90;;;;;;5061171;28;20646;-49
2020/12/05 13:34:21;;;;;;;1999.90;999.90;;;4.00;99.90;;;;;;5059326;28;20818;-48
2020/12/05 13:36:47;;;;;;;1999.90;999.90;;;4.00;99.90;;;;;;5058045;28;20192;-48
2020/12/05 13:39:12;;;;;;;1999.90;999.90;;;4.00;99.90;;;;;;5061092;28;20243;-49
2020/12/05 13:41:39;;;;;;;1999.90;999.90;;;4.10;99.90;;;;;;5057814;28;20568;-49
2020/12/05 13:44:05;;;;;;;1999.90;999.90;;;4.20;99.90;;;;;;5063312;28;20263;-48
2020/12/05 13:46:31;;;;;;;1999.90;999.90;;;4.20;99.90;;;;;;5063303;28;20439;-49
2020/12/05 13:48:58;;;;;;;1999.90;999.90;;;4.20;99.90;;;;;;5060233;28;20458;-49
2020/12/05 13:51:30;;;;;;;1999.90;999.90;;;4.40;99.90;;;;;;5067971;28;20464;-48
2020/12/05 13:53:58;;;;;;;1999.90;999.90;;;4.40;99.90;;;;;;5064555;28;20932;-47
2020/12/05 13:56:25;;;;;;;1999.90;999.90;;;4.50;99.90;;;;;;5052071;28;20438;-49
2020/12/05 13:58:50;;;;;;;1999.90;999.90;;;4.40;99.90;;;;;;5067273;28;20652;-49
2020/12/05 14:01:17;;;;;;;1999.90;999.90;;;4.50;99.90;;;;;;5066431;28;20445;-50
2020/12/05 14:03:43;;;;;;;1999.90;999.90;;;4.40;99.90;;;;;;5061313;28;20194;-50
2020/12/05 14:06:11;;;;;;;1999.90;999.90;;;4.50;99.90;;;;;;5048041;28;20512;-49
2020/12/05 14:08:37;;;;;;;1999.90;999.90;;;4.50;99.90;;;;;;5048945;28;20268;-49
2020/12/05 14:11:04;;;;;;;1999.90;999.90;;;4.50;99.90;;;;;;5058320;28;20467;-50
2020/12/05 14:13:30;;;;;;;1999.90;999.90;;;4.40;99.90;;;;;;5066798;28;20467;-50
2020/12/05 14:15:56;;;;;;;1999.90;999.90;;;4.40;99.90;;;;;;5058402;28;20527;-49
2020/12/05 14:18:22;;;;;;;1999.90;999.90;;;4.30;99.90;;;;;;5060766;28;20523;-49
2020/12/05 14:20:48;;;;;;;1999.90;999.90;;;4.30;99.90;;;;;;5056831;28;20613;-49
2020/12/05 14:23:13;;;;;;;1999.90;999.90;;;4.20;99.90;;;;;;5064368;28;21042;-49
2020/12/05 14:25:40;;;;;;;1999.90;999.90;;;4.10;99.90;;;;;;5067092;28;20753;-50
2020/12/05 14:28:06;;;;;;;1999.90;999.90;;;4.00;99.90;;;;;;5050070;28;20232;-49
2020/12/05 14:30:32;;;;;;;1999.90;999.90;;;3.90;99.90;;;;;;5047322;28;20511;-50
2020/12/05 14:32:58;;;;;;;1999.90;999.90;;;3.90;99.90;;;;;;5054444;28;20233;-50
2020/12/05 14:35:24;;;;;;;1999.90;999.90;;;3.90;99.90;;;;;;5051246;28;20186;-50
2020/12/05 14:37:49;;;;;;;1999.90;999.90;;;3.90;99.90;;;;;;5047553;28;20269;-48
2020/12/05 14:40:15;;;;;;;1999.90;999.90;;;3.70;99.90;;;;;;5050184;28;20196;-48
2020/12/05 14:42:41;;;;;;;1999.90;999.90;;;3.60;99.90;;;;;;5050995;28;20301;-48
2020/12/05 14:45:08;;;;;;;1999.90;999.90;;;3.60;99.90;;;;;;5047012;28;20202;-47
2020/12/05 14:47:34;;;;;;;1999.90;999.90;;;3.60;99.90;;;;;;5042153;28;20182;-48
2020/12/05 14:50:01;;;;;;;1999.90;999.90;;;3.50;99.90;;;;;;5040403;28;20476;-48
2020/12/05 14:52:29;;;;;;;1999.90;999.90;;;3.50;99.90;;;;;;5043672;28;20571;-48
2020/12/05 14:54:55;;;;;;;1999.90;999.90;;;3.40;99.90;;;;;;5045635;28;20428;-48
2020/12/05 14:57:21;;;;;;;1999.90;999.90;;;3.50;99.90;;;;;;5046413;28;20474;-48
2020/12/05 14:59:47;;;;;;;1999.90;999.90;;;3.50;99.90;;;;;;5047333;28;20439;-48
2020/12/05 15:02:12;;;;;;;1999.90;999.90;;;3.50;99.90;;;;;;5040184;28;20198;-48
2020/12/05 15:04:38;;;;;;;1999.90;999.90;;;3.40;99.90;;;;;;5046085;28;20946;-48
2020/12/05 15:07:03;;;;;;;1999.90;999.90;;;3.40;99.90;;;;;;5041295;28;20189;-48
2020/12/05 15:09:29;;;;;;;1999.90;999.90;;;3.40;99.90;;;;;;5043003;28;20586;-48
2020/12/05 15:11:56;;;;;;;1999.90;999.90;;;3.30;99.90;;;;;;5043942;28;20221;-49
2020/12/05 15:14:22;;;;;;;1999.90;999.90;;;3.20;99.90;;;;;;5040862;28;20957;-49
2020/12/05 15:16:47;;;;;;;1999.90;999.90;;;3.10;99.90;;;;;;5043583;28;20437;-48
2020/12/05 15:19:13;;;;;;;1999.90;999.90;;;3.20;99.90;;;;;;5040375;28;20186;-47
2020/12/05 15:21:39;;;;;;;1999.90;999.90;;;3.10;99.90;;;;;;5045352;28;20792;-48
2020/12/05 15:24:05;;;;;;;1999.90;999.90;;;3.00;99.90;;;;;;5042985;28;20455;-47
2020/12/05 15:26:31;;;;;;;1999.90;999.90;;;2.90;99.90;;;;;;5043918;28;20189;-47
2020/12/05 15:28:56;;;;;;;1999.90;999.90;;;2.80;99.90;;;;;;5038741;28;20453;-48
2020/12/05 15:31:22;;;;;;;1999.90;999.90;;;2.80;99.90;;;;;;5044244;28;20218;-48
2020/12/05 15:33:47;;;;;;;1999.90;999.90;;;2.70;99.90;;;;;;5039597;28;20189;-48
2020/12/05 15:36:14;;;;;;;1999.90;999.90;;;2.80;99.90;;;;;;5040089;28;20187;-48
2020/12/05 15:38:42;;;;;;;1999.90;999.90;;;2.70;99.90;;;;;;5046567;28;20266;-47
2020/12/05 15:41:10;;;;;;;1999.90;999.90;;;2.60;99.90;;;;;;5040226;28;20530;-48
2020/12/05 15:43:35;;;;;;;1999.90;999.90;;;2.50;99.90;;;;;;5050284;28;21130;-47
2020/12/05 15:46:01;;;;;;;1999.90;999.90;;;2.50;99.90;;;;;;5032644;28;20460;-47
2020/12/05 15:48:27;;;;;;;1999.90;999.90;;;2.50;99.90;;;;;;5039075;28;20193;-47
2020/12/05 15:50:52;;;;;;;1999.90;999.90;;;2.40;99.90;;;;;;5052283;28;20234;-48
2020/12/05 15:53:18;;;;;;;1999.90;999.90;;;2.40;99.90;;;;;;5049541;28;20240;-47
2020/12/05 15:55:43;;;;;;;1999.90;999.90;;;2.50;99.90;;;;;;5052047;28;20182;-47
2020/12/05 15:58:09;;;;;;;1999.90;999.90;;;2.40;99.90;;;;;;5036817;28;20250;-48
2020/12/05 16:00:35;;;;;;;1999.90;999.90;;;2.40;99.90;;;;;;5043767;28;20191;-48
2020/12/05 16:03:01;;;;;;;1999.90;999.90;;;2.40;99.90;;;;;;5048967;28;20498;-47
2020/12/05 16:05:27;;;;;;;1999.90;999.90;;;2.40;99.90;;;;;;5051861;28;20185;-48
2020/12/05 16:07:55;;;;;;;1999.90;999.90;;;2.40;99.90;;;;;;5045287;28;20198;-48
2020/12/05 16:10:22;;;;;;;1999.90;999.90;;;2.40;99.90;;;;;;5042249;28;20965;-49
2020/12/05 16:12:48;;;;;;;1999.90;999.90;;;2.30;99.90;;;;;;5042709;28;20479;-48
2020/12/05 16:15:15;;;;;;;1999.90;999.90;;;2.30;99.90;;;;;;5044142;28;20448;-47
2020/12/05 16:17:43;;;;;;;1999.90;999.90;;;2.40;99.90;;;;;;5049426;28;20439;-48
2020/12/05 16:20:09;;;;;;;1999.90;999.90;;;2.40;99.90;;;;;;5036095;28;20496;-49
2020/12/05 16:22:38;;;;;;;1999.90;999.90;;;2.30;99.90;;;;;;5030997;28;20554;-48
2020/12/05 16:25:06;;;;;;;1999.90;999.90;;;2.30;99.90;;;;;;5031088;28;20197;-47
2020/12/05 16:27:31;;;;;;;1999.90;999.90;;;2.30;99.90;;;;;;5042380;28;20932;-48
2020/12/05 16:29:57;;;;;;;1999.90;999.90;;;2.30;99.90;;;;;;5047019;28;20472;-48
2020/12/05 16:32:23;;;;;;;1999.90;999.90;;;2.20;99.90;;;;;;5043934;28;20802;-47
2020/12/05 16:34:49;;;;;;;1999.90;999.90;;;2.20;99.90;;;;;;5049388;28;20324;-48
2020/12/05 16:37:19;;;;;;;1999.90;999.90;;;2.30;99.90;;;;;;5038781;28;21012;-47
2020/12/05 16:39:45;;;;;;;1999.90;999.90;;;2.30;99.90;;;;;;5033925;28;20190;-47
2020/12/05 16:42:10;;;;;;;1999.90;999.90;;;2.30;99.90;;;;;;5030758;28;20464;-47
2020/12/05 16:44:36;;;;;;;1999.90;999.90;;;2.30;99.90;;;;;;5032845;28;20178;-47
2020/12/05 16:47:02;;;;;;;1999.90;999.90;;;2.20;99.90;;;;;;5046470;28;20744;-47
2020/12/05 16:49:27;;;;;;;1999.90;999.90;;;2.30;99.90;;;;;;5041618;28;20579;-49
2020/12/05 16:51:53;;;;;;;1999.90;999.90;;;2.40;99.90;;;;;;5050159;28;20216;-47
2020/12/05 16:54:19;;;;;;;1999.90;999.90;;;2.40;99.90;;;;;;5050325;28;20214;-47
2020/12/05 16:56:44;;;;;;;1999.90;999.90;;;2.30;99.90;;;;;;5050372;28;20657;-47
2020/12/05 16:59:10;;;;;;;1999.90;999.90;;;2.40;99.90;;;;;;5047406;28;20190;-48
2020/12/05 17:01:36;;;;;;;1999.90;999.90;;;2.30;99.90;;;;;;5048725;28;20420;-48
2020/12/05 17:04:02;;;;;;;1999.90;999.90;;;2.40;99.90;;;;;;5047763;28;20186;-48
2020/12/05 17:06:31;;;;;;;1999.90;999.90;;;2.40;99.90;;;;;;5032168;28;20575;-48
2020/12/05 17:08:57;;;;;;;1999.90;999.90;;;2.40;99.90;;;;;;5042825;28;20720;-49
2020/12/05 17:11:22;;;;;;;1999.90;999.90;;;2.40;99.90;;;;;;5042949;28;20475;-49
2020/12/05 17:13:48;;;;;;;1999.90;999.90;;;2.30;99.90;;;;;;5040387;28;20463;-48
2020/12/05 17:16:13;;;;;;;1999.90;999.90;;;2.30;99.90;;;;;;5037039;28;20181;-47
2020/12/05 17:18:39;;;;;;;1999.90;999.90;;;2.30;99.90;;;;;;5028747;28;20183;-47
2020/12/05 17:21:05;;;;;;;1999.90;999.90;;;2.30;99.90;;;;;;5033120;28;20186;-47
2020/12/05 17:23:31;;;;;;;1999.90;999.90;;;2.40;99.90;;;;;;5030229;28;21285;-46
2020/12/05 17:25:57;;;;;;;1999.90;999.90;;;2.40;99.90;;;;;;5029901;28;20514;-46
2020/12/05 17:28:23;;;;;;;1999.90;999.90;;;2.50;99.90;;;;;;5042322;28;20964;-47
2020/12/05 17:30:48;;;;;;;1999.90;999.90;;;2.50;99.90;;;;;;5039596;28;20460;-48
2020/12/05 17:33:14;;;;;;;1999.90;999.90;;;2.40;99.90;;;;;;5035748;28;20198;-49
2020/12/05 17:35:40;;;;;;;1999.90;999.90;;;2.40;99.90;;;;;;5029753;28;20253;-50
2020/12/05 17:38:05;;;;;;;1999.90;999.90;;;2.40;99.90;;;;;;5028065;28;20179;-49
2020/12/05 17:40:31;;;;;;;1999.90;999.90;;;2.50;99.90;;;;;;5032618;28;20681;-49
2020/12/05 17:42:57;;;;;;;1999.90;999.90;;;2.50;99.90;;;;;;5045303;28;20291;-49
2020/12/05 17:45:23;;;;;;;1999.90;999.90;;;2.50;99.90;;;;;;5042024;28;20871;-48
2020/12/05 17:47:49;;;;;;;1999.90;999.90;;;2.50;99.90;;;;;;5032820;28;20198;-49
2020/12/05 17:50:14;;;;;;;1999.90;999.90;;;2.50;99.90;;;;;;5030101;28;20235;-49
2020/12/05 17:52:40;;;;;;;1999.90;999.90;;;2.50;99.90;;;;;;5031350;28;20213;-48
2020/12/05 17:55:07;;;;;;;1999.90;999.90;;;2.50;99.90;;;;;;5043847;28;20188;-49
2020/12/05 17:57:32;;;;;;;1999.90;999.90;;;2.50;99.90;;;;;;5050118;28;20185;-49
2020/12/05 18:00:00;;;;;;;1999.90;999.90;;;2.50;99.90;;;;;;5046195;28;20463;-49
2020/12/05 18:02:25;;;;;;;1999.90;999.90;;;2.50;99.90;;;;;;5029967;28;20702;-49
2020/12/05 18:04:51;;;;;;;1999.90;999.90;;;2.50;99.90;;;;;;5040794;28;20463;-49
2020/12/05 18:07:16;;;;;;;1999.90;999.90;;;2.40;99.90;;;;;;5035728;28;20189;-49
2020/12/05 18:09:42;;;;;;;1999.90;999.90;;;2.40;99.90;;;;;;5029582;28;20633;-49
2020/12/05 18:12:08;;;;;;;1999.90;999.90;;;2.30;99.90;;;;;;5029939;28;20208;-49
2020/12/05 18:14:34;;;;;;;1999.90;999.90;;;2.30;99.90;;;;;;5033073;28;20654;-46
2020/12/05 18:17:01;;;;;;;1999.90;999.90;;;2.40;99.90;;;;;;5038633;28;20448;-47
2020/12/05 18:19:29;;;;;;;1999.90;999.90;;;2.30;99.90;;;;;;5044765;28;20186;-46
2020/12/05 18:21:56;;;;;;;1999.90;999.90;;;2.30;99.90;;;;;;5040480;28;20923;-47
2020/12/05 18:24:22;;;;;;;1999.90;999.90;;;2.30;99.90;;;;;;5043347;28;20450;-48
2020/12/05 18:26:48;;;;;;;1999.90;999.90;;;2.40;99.90;;;;;;5043345;28;20492;-48
2020/12/05 18:29:15;;;;;;;1999.90;999.90;;;2.40;99.90;;;;;;5040076;28;20446;-48
2020/12/05 18:31:42;;;;;;;1999.90;999.90;;;2.40;99.90;;;;;;5032791;28;20519;-47
2020/12/05 18:34:08;;;;;;;1999.90;999.90;;;2.40;99.90;;;;;;5041406;28;20448;-47
2020/12/05 18:36:34;;;;;;;1999.90;999.90;;;2.30;99.90;;;;;;5050555;28;20489;-46
2020/12/05 18:39:00;;;;;;;1999.90;999.90;;;2.30;99.90;;;;;;5033410;28;20425;-49
2020/12/05 18:41:26;;;;;;;1999.90;999.90;;;2.40;99.90;;;;;;5039248;28;20444;-46
2020/12/05 18:43:54;;;;;;;1999.90;999.90;;;2.40;99.90;;;;;;5045048;28;20194;-47
2020/12/05 18:46:22;;;;;;;1999.90;999.90;;;2.50;99.90;;;;;;5047828;23;20506;-49
2020/12/05 18:48:48;;;;;;;1999.90;999.90;;;2.50;99.90;;;;;;5024154;28;20476;-49
2020/12/05 18:51:15;;;;;;;1999.90;999.90;;;2.40;99.90;;;;;;5033583;28;20472;-49
2020/12/05 18:53:41;;;;;;;1999.90;999.90;;;2.40;99.90;;;;;;5033873;28;20484;-50
2020/12/05 18:56:07;;;;;;;1999.90;999.90;;;2.40;99.90;;;;;;5034374;28;20465;-50
2020/12/05 18:58:33;;;;;;;1999.90;999.90;;;2.30;99.90;;;;;;5028006;28;21169;-51
2020/12/05 19:00:59;;;;;;;1999.90;999.90;;;2.30;99.90;;;;;;5029954;28;20540;-50
2020/12/05 19:03:25;;;;;;;1999.90;999.90;;;2.50;99.90;;;;;;5030453;28;20239;-50
2020/12/05 19:05:52;;;;;;;1999.90;999.90;;;2.40;99.90;;;;;;5033984;28;20461;-50
2020/12/05 19:08:18;;;;;;;1999.90;999.90;;;2.40;99.90;;;;;;5029626;28;20447;-50
2020/12/05 19:10:45;;;;;;;1999.90;999.90;;;2.30;99.90;;;;;;5034885;28;20469;-49
2020/12/05 19:13:10;;;;;;;1999.90;999.90;;;2.20;99.90;;;;;;5030351;28;21233;-50
2020/12/05 19:15:36;;;;;;;1999.90;999.90;;;2.20;99.90;;;;;;5029271;28;20539;-50
2020/12/05 19:18:01;;;;;;;1999.90;999.90;;;2.20;99.90;;;;;;5031287;28;20186;-50
2020/12/05 19:20:27;;;;;;;1999.90;999.90;;;2.20;99.90;;;;;;5032365;28;20215;-50
2020/12/05 19:22:53;;;;;;;1999.90;999.90;;;2.30;99.90;;;;;;5031486;28;20197;-50
2020/12/05 19:25:18;;;;;;;1999.90;999.90;;;2.30;99.90;;;;;;5030728;28;20219;-50
2020/12/05 19:27:44;;;;;;;1999.90;999.90;;;2.30;99.90;;;;;;5030869;28;20185;-49
2020/12/05 19:30:09;;;;;;;1999.90;999.90;;;2.40;99.90;;;;;;5029817;28;20201;-50
2020/12/05 19:32:35;;;;;;;1999.90;999.90;;;2.40;99.90;;;;;;5024706;28;20683;-50
2020/12/05 19:35:00;;;;;;;1999.90;999.90;;;2.40;99.90;;;;;;5028801;28;20188;-50
2020/12/05 19:37:26;;;;;;;1999.90;999.90;;;2.30;99.90;;;;;;5026763;28;20254;-50
2020/12/05 19:39:52;;;;;;;1999.90;999.90;;;2.30;99.90;;;;;;5029659;28;20197;-50
2020/12/05 19:42:18;;;;;;;1999.90;999.90;;;2.30;99.90;;;;;;5031663;28;20308;-50
2020/12/05 19:44:44;;;;;;;1999.90;999.90;;;2.30;99.90;;;;;;5027392;28;20268;-50
2020/12/05 19:47:10;;;;;;;1999.90;999.90;;;2.30;99.90;;;;;;5026681;28;20951;-50
2020/12/05 19:49:35;;;;;;;1999.90;999.90;;;2.30;99.90;;;;;;5027249;28;20631;-50
2020/12/05 19:52:04;;;;;;;1999.90;999.90;;;2.40;99.90;;;;;;5028543;28;20805;-50
2020/12/05 19:54:29;;;;;;;1999.90;999.90;;;2.40;99.90;;;;;;5029307;28;20235;-50
2020/12/05 19:56:58;;;;;;;1999.90;999.90;;;2.50;99.90;;;;;;5029614;28;20459;-50
2020/12/05 19:59:25;;;;;;;1999.90;999.90;;;2.50;99.90;;;;;;5028723;28;20187;-50
2020/12/05 20:01:50;;;;;;;1999.90;999.90;;;2.50;99.90;;;;;;5030364;28;20475;-50
2020/12/05 20:04:16;;;;;;;1999.90;999.90;;;2.50;99.90;;;;;;5032069;28;20456;-50
2020/12/05 20:06:42;;;;;;;1999.90;999.90;;;2.60;99.90;;;;;;5028916;28;20612;-50
2020/12/05 20:09:10;;;;;;;1999.90;999.90;;;2.60;99.90;;;;;;5031075;28;20190;-50
2020/12/05 20:11:36;;;;;;;1999.90;999.90;;;2.60;99.90;;;;;;5028832;28;20206;-50
2020/12/05 20:14:02;;;;;;;1999.90;999.90;;;2.60;99.90;;;;;;5031127;28;20539;-49
2020/12/05 20:16:27;;;;;;;1999.90;999.90;;;2.60;99.90;;;;;;5030888;28;20696;-50
2020/12/05 20:18:56;;;;;;;1999.90;999.90;;;2.70;99.90;;;;;;5031056;28;20449;-50
2020/12/05 20:21:21;;;;;;;1999.90;999.90;;;2.60;99.90;;;;;;5026651;28;20189;-50
2020/12/05 20:23:47;;;;;;;1999.90;999.90;;;2.70;99.90;;;;;;5024879;28;20456;-50
2020/12/05 20:26:13;;;;;;;1999.90;999.90;;;2.60;99.90;;;;;;5027659;28;20220;-50
2020/12/05 20:28:39;;;;;;;1999.90;999.90;;;2.60;99.90;;;;;;5030984;28;20315;-50
2020/12/05 20:31:04;;;;;;;1999.90;999.90;;;2.50;99.90;;;;;;5029503;28;20628;-50
2020/12/05 20:33:30;;;;;;;1999.90;999.90;;;2.50;99.90;;;;;;5030822;28;20276;-50
2020/12/05 20:35:56;;;;;;;1999.90;999.90;;;2.30;99.90;;;;;;5031873;28;20324;-50
2020/12/05 20:38:22;;;;;;;1999.90;999.90;;;2.30;99.90;;;;;;5030984;28;20456;-50
2020/12/05 20:40:48;;;;;;;1999.90;999.90;;;2.20;99.90;;;;;;5023582;28;20205;-50
2020/12/05 20:43:13;;;;;;;1999.90;999.90;;;2.30;99.90;;;;;;5031556;28;20503;-49
2020/12/05 20:45:41;;;;;;;1999.90;999.90;;;2.20;99.90;;;;;;5029404;28;20271;-50
2020/12/05 20:48:08;;;;;;;1999.90;999.90;;;2.10;99.90;;;;;;5020944;28;20686;-50
2020/12/05 20:50:33;;;;;;;1999.90;999.90;;;2.10;99.90;;;;;;5027577;28;20519;-50
2020/12/05 20:52:59;;;;;;;1999.90;999.90;;;2.10;99.90;;;;;;5026808;28;20441;-50
2020/12/05 20:55:24;;;;;;;1999.90;999.90;;;2.10;99.90;;;;;;5022230;28;20642;-50
2020/12/05 20:57:50;;;;;;;1999.90;999.90;;;2.20;99.90;;;;;;5021878;28;20183;-50
2020/12/05 21:00:16;;;;;;;1999.90;999.90;;;2.30;99.90;;;;;;5025852;28;20182;-50
2020/12/05 21:02:42;;;;;;;1999.90;999.90;;;2.40;99.90;;;;;;5026664;28;20208;-49
2020/12/05 21:05:08;;;;;;;1999.90;999.90;;;2.50;99.90;;;;;;5021346;28;20422;-50
2020/12/05 21:07:34;;;;;;;1999.90;999.90;;;2.40;99.90;;;;;;5041860;28;20461;-50
2020/12/05 21:10:00;;;;;;;1999.90;999.90;;;2.50;99.90;;;;;;5036679;28;20434;-50
2020/12/05 21:12:26;;;;;;;1999.90;999.90;;;2.50;99.90;;;;;;5025653;28;20483;-50
2020/12/05 21:14:51;;;;;;;1999.90;999.90;;;2.40;99.90;;;;;;5023502;28;20185;-50
2020/12/05 21:17:17;;;;;;;1999.90;999.90;;;2.40;99.90;;;;;;5025022;28;20222;-49
2020/12/05 21:19:43;;;;;;;1999.90;999.90;;;2.40;99.90;;;;;;5024131;28;20706;-50
2020/12/05 21:22:09;;;;;;;1999.90;999.90;;;2.40;99.90;;;;;;5026338;28;20462;-50
2020/12/05 21:24:35;;;;;;;1999.90;999.90;;;2.40;99.90;;;;;;5024305;28;20564;-50
2020/12/05 21:27:01;;;;;;;1999.90;999.90;;;2.40;99.90;;;;;;5021989;28;20201;-49
2020/12/05 21:29:26;;;;;;;1999.90;999.90;;;2.40;99.90;;;;;;5029538;28;20219;-50
2020/12/05 21:31:52;;;;;;;1999.90;999.90;;;2.50;99.90;;;;;;5030447;28;20879;-49
2020/12/05 21:34:18;;;;;;;1999.90;999.90;;;2.50;99.90;;;;;;5027789;28;20189;-50
2020/12/05 21:36:44;;;;;;;1999.90;999.90;;;2.50;99.90;;;;;;5026685;28;20457;-50
2020/12/05 21:39:10;;;;;;;1999.90;999.90;;;2.50;99.90;;;;;;5028416;28;20213;-51
2020/12/05 21:41:35;;;;;;;1999.90;999.90;;;2.50;99.90;;;;;;5024775;28;20830;-50
2020/12/05 21:44:01;;;;;;;1999.90;999.90;;;2.50;99.90;;;;;;5021160;28;20437;-49
2020/12/05 21:46:27;;;;;;;1999.90;999.90;;;2.60;99.90;;;;;;5026355;28;20228;-50
2020/12/05 21:48:53;;;;;;;1999.90;999.90;;;2.60;99.90;;;;;;5025743;28;20449;-49
2020/12/05 21:51:18;;;;;;;1999.90;999.90;;;2.60;99.90;;;;;;5026955;28;20557;-50
2020/12/05 21:53:44;;;;;;;1999.90;999.90;;;2.50;99.90;;;;;;5029024;28;20653;-50
2020/12/05 21:56:13;;;;;;;1999.90;999.90;;;2.50;99.90;;;;;;5030137;28;20194;-50
2020/12/05 21:58:40;;;;;;;1999.90;999.90;;;2.50;99.90;;;;;;5031004;28;20457;-49
2020/12/05 22:01:12;;;;;;;1999.90;999.90;;;2.50;99.90;;;;;;5029741;28;20453;-50
2020/12/05 22:03:38;;;;;;;1999.90;999.90;;;2.50;99.90;;;;;;5029781;28;20810;-50
2020/12/05 22:06:03;;;;;;;1999.90;999.90;;;2.50;99.90;;;;;;5027255;28;20473;-49
2020/12/05 22:08:29;;;;;;;1999.90;999.90;;;2.60;99.90;;;;;;5026751;28;20191;-50
2020/12/05 22:10:55;;;;;;;1999.90;999.90;;;2.60;99.90;;;;;;5033107;28;20217;-50
2020/12/05 22:13:20;;;;;;;1999.90;999.90;;;2.60;99.90;;;;;;5029215;28;20274;-51
2020/12/05 22:15:46;;;;;;;1999.90;999.90;;;2.60;99.90;;;;;;5026111;28;20239;-50
2020/12/05 22:18:12;;;;;;;1999.90;999.90;;;2.50;99.90;;;;;;5026970;28;20188;-51
2020/12/05 22:20:37;;;;;;;1999.90;999.90;;;2.50;99.90;;;;;;5028483;28;20189;-50
2020/12/05 22:23:03;;;;;;;1999.90;999.90;;;2.50;99.90;;;;;;5023968;28;20474;-50
2020/12/05 22:25:29;;;;;;;1999.90;999.90;;;2.50;99.90;;;;;;5025286;28;20191;-50
2020/12/05 22:27:55;;;;;;;1999.90;999.90;;;2.40;99.90;;;;;;5027232;28;20245;-51
2020/12/05 22:30:21;;;;;;;1999.90;999.90;;;2.50;99.90;;;;;;5026420;28;20456;-51
2020/12/05 22:32:47;;;;;;;1999.90;999.90;;;2.40;99.90;;;;;;5025732;28;20822;-50
2020/12/05 22:35:13;;;;;;;1999.90;999.90;;;2.40;99.90;;;;;;5029371;28;20209;-51
2020/12/05 22:37:38;;;;;;;1999.90;999.90;;;2.40;99.90;;;;;;5027878;28;20273;-50
2020/12/05 22:40:05;;;;;;;1999.90;999.90;;;2.40;99.90;;;;;;5028897;28;20444;-50
2020/12/05 22:42:30;;;;;;;1999.90;999.90;;;2.40;99.90;;;;;;5026937;28;20205;-50
2020/12/05 22:44:56;;;;;;;1999.90;999.90;;;2.50;99.90;;;;;;5027383;28;20954;-50
2020/12/05 22:47:22;;;;;;;1999.90;999.90;;;2.50;99.90;;;;;;5033499;28;20225;-50
2020/12/05 22:49:47;;;;;;;1999.90;999.90;;;2.50;99.90;;;;;;5024861;28;20654;-51
2020/12/05 22:52:13;;;;;;;1999.90;999.90;;;2.30;99.90;;;;;;5024897;28;20232;-50
2020/12/05 22:54:41;;;;;;;1999.90;999.90;;;2.30;99.90;;;;;;5026654;28;20194;-50
2020/12/05 22:57:07;;;;;;;1999.90;999.90;;;2.30;99.90;;;;;;5025611;28;20449;-50
2020/12/05 22:59:34;;;;;;;1999.90;999.90;;;2.20;99.90;;;;;;5026847;28;20461;-50
2020/12/05 23:02:00;;;;;;;1999.90;999.90;;;2.20;99.90;;;;;;5029064;28;20503;-50
2020/12/05 23:04:26;;;;;;;1999.90;999.90;;;2.20;99.90;;;;;;5032480;28;20427;-50
2020/12/05 23:06:52;;;;;;;1999.90;999.90;;;2.20;99.90;;;;;;5026870;28;20461;-50
2020/12/05 23:09:18;;;;;;;1999.90;999.90;;;2.20;99.90;;;;;;5028725;28;20182;-50
2020/12/05 23:11:46;;;;;;;1999.90;999.90;;;2.10;99.90;;;;;;5027444;28;20468;-50
2020/12/05 23:14:12;;;;;;;1999.90;999.90;;;2.10;99.90;;;;;;5021707;28;20944;-50
2020/12/05 23:16:38;;;;;;;1999.90;999.90;;;2.10;99.90;;;;;;5028726;28;20457;-51
2020/12/05 23:19:13;;;;;;;1999.90;999.90;;;2.00;99.90;;;;;;5025955;28;20503;-51
2020/12/05 23:21:39;;;;;;;1999.90;999.90;;;2.00;99.90;;;;;;5024798;28;20832;-51
2020/12/05 23:24:07;;;;;;;1999.90;999.90;;;2.00;99.90;;;;;;5024847;28;20522;-51
2020/12/05 23:26:34;;;;;;;1999.90;999.90;;;1.90;99.90;;;;;;5025655;28;20205;-52
2020/12/05 23:29:00;;;;;;;1999.90;999.90;;;1.80;99.90;;;;;;5026623;28;20444;-51
2020/12/05 23:36:41;;;;;;;1999.90;999.90;;;1.60;99.90;;;;;;5023109;28;20495;-51
2020/12/05 23:39:07;;;;;;;1999.90;999.90;;;1.60;99.90;;;;;;5023091;28;20489;-51
2020/12/05 23:41:33;;;;;;;1999.90;999.90;;;1.50;99.90;;;;;;5024558;28;20417;-51
2020/12/05 23:43:59;;;;;;;1999.90;999.90;;;1.50;99.90;;;;;;5021119;28;20501;-51
2020/12/05 23:46:25;;;;;;;1999.90;999.90;;;1.50;99.90;;;;;;5025936;28;20481;-51
2020/12/05 23:48:50;;;;;;;1999.90;999.90;;;1.50;99.90;;;;;;5025284;28;20557;-51
2020/12/05 23:51:16;;;;;;;1999.90;999.90;;;1.40;99.90;;;;;;5026771;28;20217;-50
2020/12/05 23:53:43;;;;;;;1999.90;999.90;;;1.50;99.90;;;;;;5029887;28;20189;-50
2020/12/05 23:56:12;;;;;;;1999.90;999.90;;;1.50;99.90;;;;;;5028936;28;20212;-51
2020/12/05 23:58:38;;;;;;;1999.90;999.90;;;1.50;99.90;;;;;;5024739;28;20420;-51
